Status Quo — ZGAJ4 — position and weather

sailwx.info

Track history (hours):
 
Tides and Currents Weather Stations Pressure Air Temp Water Temp Dewpoint Dewpoint Depression Visibility Wind Speed Wind Dir Waves Ship Positions

Status Quo

Last reported at 2017-Nov-14 06:26 UTC. Time now 2017-Nov-23 01:27 UTC.
Position N 24°47' W 079°22'.
Warning: this ship's position is 8 days out of date.

Length 45 m; draft 2.1 m.

Type: Pleasure craft. MMSI: 319477000.

Date/timePositionNaut miles runAvg speedWind from/ knotsBaromVisibWave heightAir tempDewpointWater temp
2017-Nov-14 06:26N 24°47' W 079°22'  
2017-Nov-06 00:40N 25°28' W 080°04'2 9.6
2017-Nov-06 00:30N 25°29' W 080°04'5 9.5
2017-Nov-06 00:00N 25°34' W 080°04'5 9.4
2017-Nov-05 23:30N 25°39' W 080°04'5 9.7
2017-Nov-05 23:00N 25°43' W 080°04'510.6
2017-Nov-05 22:30N 25°49' W 080°04'510.8
2017-Nov-05 22:00N 25°54' W 080°04'510.9
2017-Nov-05 21:30N 25°60' W 080°04'510.9
2017-Nov-05 21:00N 26°05' W 080°05'3 5.2
2017-Nov-05 20:30N 26°07' W 080°07'1 2.3
2017-Nov-05 20:00N 26°08' W 080°06'0 0.4
2017-Nov-05 19:20N 26°07' W 080°06'0 0.0
2017-Nov-05 18:53N 26°07' W 080°06'0 0.0
2017-Nov-05 18:23N 26°07' W 080°06'0 0.0
2017-Nov-05 17:53N 26°07' W 080°06'0 0.0
2017-Nov-05 17:08N 26°07' W 080°06'0 0.0
2017-Nov-05 16:53N 26°07' W 080°06'0 0.0
2017-Nov-05 16:23N 26°07' W 080°06'0 0.0
2017-Nov-05 15:56N 26°07' W 080°06'0 0.0
2017-Nov-05 15:26N 26°07' W 080°06'0 0.0
2017-Nov-05 14:56N 26°07' W 080°06'0 0.0
2017-Nov-05 14:26N 26°07' W 080°06'0 0.0
2017-Nov-05 12:59N 26°07' W 080°06'0 0.0
2017-Nov-05 12:29N 26°07' W 080°06'0 0.0
2017-Nov-05 11:44N 26°07' W 080°06'0 0.0
2017-Nov-05 11:26N 26°07' W 080°06'0 0.0
2017-Nov-05 10:44N 26°07' W 080°06'0 0.0
2017-Nov-05 10:26N 26°07' W 080°06'0 0.0
2017-Nov-05 09:56N 26°07' W 080°06'0 0.0
2017-Nov-05 09:29N 26°07' W 080°06'0 0.0
2017-Nov-05 08:44N 26°07' W 080°06'0 0.0
2017-Nov-05 08:14N 26°07' W 080°06'0 0.0
2017-Nov-05 07:47N 26°07' W 080°06'0 0.0
2017-Nov-05 07:29N 26°07' W 080°06'0 0.0
2017-Nov-05 06:59N 26°07' W 080°06'0 0.0
2017-Nov-05 06:29N 26°07' W 080°06'0 0.0
2017-Nov-05 05:50N 26°07' W 080°06'0 0.0
2017-Nov-05 05:20N 26°07' W 080°06'0 0.0
2017-Nov-05 04:50N 26°07' W 080°06'0 0.0
2017-Nov-05 04:23N 26°07' W 080°06'0 0.0
2017-Nov-05 03:50N 26°07' W 080°06'0 0.0
2017-Nov-05 03:23N 26°07' W 080°06'0 0.0
2017-Nov-05 02:38N 26°07' W 080°06'0 0.0
2017-Nov-05 02:23N 26°07' W 080°06'0 0.0
2017-Nov-05 01:35N 26°07' W 080°06'0 0.0
2017-Nov-05 01:05N 26°07' W 080°06'0 0.0
2017-Nov-05 00:41N 26°07' W 080°06'0 0.0
2017-Nov-05 00:26N 26°07' W 080°06'0 0.0
2017-Nov-04 23:56N 26°07' W 080°06'0 0.0
2017-Nov-04 22:44N 26°07' W 080°06'0 0.0
2017-Nov-04 22:26N 26°07' W 080°06'0 0.0
2017-Nov-04 21:59N 26°07' W 080°06'0 0.0
2017-Nov-04 21:29N 26°07' W 080°06'0 0.0
2017-Nov-04 20:59N 26°07' W 080°06'0 0.0
2017-Nov-04 20:14N 26°07' W 080°06'0 0.0
2017-Nov-04 19:59N 26°07' W 080°06'0 0.0
2017-Nov-04 19:14N 26°07' W 080°06'0 0.0
2017-Nov-04 18:59N 26°07' W 080°06'0 0.0
2017-Nov-04 18:17N 26°07' W 080°06'0 0.0
2017-Nov-04 17:47N 26°07' W 080°06'0 0.0
2017-Nov-04 17:29N 26°07' W 080°06'0 0.0
2017-Nov-04 16:59N 26°07' W 080°06'0 0.0
2017-Nov-04 16:29N 26°07' W 080°06'0 0.0
2017-Nov-04 15:59N 26°07' W 080°06'0 0.0
2017-Nov-04 15:20N 26°07' W 080°06'0 0.0
2017-Nov-04 14:50N 26°07' W 080°06'0 0.0
2017-Nov-04 14:17N 26°07' W 080°06'0 0.0
2017-Nov-04 13:53N 26°07' W 080°06'0 0.0
2017-Nov-04 13:23N 26°07' W 080°06'0 0.0
2017-Nov-04 12:53N 26°07' W 080°06'0 0.0
2017-Nov-04 12:23N 26°07' W 080°06'0 0.0
2017-Nov-04 11:53N 26°07' W 080°06'0 0.0
2017-Nov-04 11:23N 26°07' W 080°06'0 0.0
2017-Nov-04 10:56N 26°07' W 080°06'0 0.0
2017-Nov-04 09:38N 26°07' W 080°06'0 0.0
2017-Nov-04 09:26N 26°07' W 080°06'0 0.0
2017-Nov-04 08:44N 26°07' W 080°06'0 0.0
2017-Nov-04 08:26N 26°07' W 080°06'0 0.0
2017-Nov-04 07:56N 26°07' W 080°06'0 0.0
2017-Nov-04 07:26N 26°07' W 080°06'0 0.0
2017-Nov-04 06:59N 26°07' W 080°06'0 0.0
2017-Nov-04 06:29N 26°07' W 080°06'  
Track history (hours):
 
Tides and Currents Weather Stations Pressure Air Temp Water Temp Dewpoint Dewpoint Depression Visibility Wind Speed Wind Dir Waves Ship Positions

Status Quo

Last reported at 2017-Nov-14 06:26 UTC. Time now 2017-Nov-23 01:27 UTC.
Position N 24°47' W 079°22'.
Warning: this ship's position is 8 days out of date.

Length 45 m; draft 2.1 m.

Type: Pleasure craft. MMSI: 319477000.

Date/timePositionNaut miles runAvg speedWind from/ knotsBaromVisibWave heightAir tempDewpointWater temp
2017-Nov-14 06:26N 24°47' W 079°22'  
2017-Nov-06 00:40N 25°28' W 080°04'2 9.6
2017-Nov-06 00:30N 25°29' W 080°04'5 9.5
2017-Nov-06 00:00N 25°34' W 080°04'5 9.4
2017-Nov-05 23:30N 25°39' W 080°04'5 9.7
2017-Nov-05 23:00N 25°43' W 080°04'510.6
2017-Nov-05 22:30N 25°49' W 080°04'510.8
2017-Nov-05 22:00N 25°54' W 080°04'510.9
2017-Nov-05 21:30N 25°60' W 080°04'510.9
2017-Nov-05 21:00N 26°05' W 080°05'3 5.2
2017-Nov-05 20:30N 26°07' W 080°07'1 2.3
2017-Nov-05 20:00N 26°08' W 080°06'0 0.4
2017-Nov-05 19:20N 26°07' W 080°06'0 0.0
2017-Nov-05 18:53N 26°07' W 080°06'0 0.0
2017-Nov-05 18:23N 26°07' W 080°06'0 0.0
2017-Nov-05 17:53N 26°07' W 080°06'0 0.0
2017-Nov-05 17:08N 26°07' W 080°06'0 0.0
2017-Nov-05 16:53N 26°07' W 080°06'0 0.0
2017-Nov-05 16:23N 26°07' W 080°06'0 0.0
2017-Nov-05 15:56N 26°07' W 080°06'0 0.0
2017-Nov-05 15:26N 26°07' W 080°06'0 0.0
2017-Nov-05 14:56N 26°07' W 080°06'0 0.0
2017-Nov-05 14:26N 26°07' W 080°06'0 0.0
2017-Nov-05 12:59N 26°07' W 080°06'0 0.0
2017-Nov-05 12:29N 26°07' W 080°06'0 0.0
2017-Nov-05 11:44N 26°07' W 080°06'0 0.0
2017-Nov-05 11:26N 26°07' W 080°06'0 0.0
2017-Nov-05 10:44N 26°07' W 080°06'0 0.0
2017-Nov-05 10:26N 26°07' W 080°06'0 0.0
2017-Nov-05 09:56N 26°07' W 080°06'0 0.0
2017-Nov-05 09:29N 26°07' W 080°06'0 0.0
2017-Nov-05 08:44N 26°07' W 080°06'0 0.0
2017-Nov-05 08:14N 26°07' W 080°06'0 0.0
2017-Nov-05 07:47N 26°07' W 080°06'0 0.0
2017-Nov-05 07:29N 26°07' W 080°06'0 0.0
2017-Nov-05 06:59N 26°07' W 080°06'0 0.0
2017-Nov-05 06:29N 26°07' W 080°06'0 0.0
2017-Nov-05 05:50N 26°07' W 080°06'0 0.0
2017-Nov-05 05:20N 26°07' W 080°06'0 0.0
2017-Nov-05 04:50N 26°07' W 080°06'0 0.0
2017-Nov-05 04:23N 26°07' W 080°06'0 0.0
2017-Nov-05 03:50N 26°07' W 080°06'0 0.0
2017-Nov-05 03:23N 26°07' W 080°06'0 0.0
2017-Nov-05 02:38N 26°07' W 080°06'0 0.0
2017-Nov-05 02:23N 26°07' W 080°06'0 0.0
2017-Nov-05 01:35N 26°07' W 080°06'0 0.0
2017-Nov-05 01:05N 26°07' W 080°06'0 0.0
2017-Nov-05 00:41N 26°07' W 080°06'0 0.0
2017-Nov-05 00:26N 26°07' W 080°06'0 0.0
2017-Nov-04 23:56N 26°07' W 080°06'0 0.0
2017-Nov-04 22:44N 26°07' W 080°06'0 0.0
2017-Nov-04 22:26N 26°07' W 080°06'0 0.0
2017-Nov-04 21:59N 26°07' W 080°06'0 0.0
2017-Nov-04 21:29N 26°07' W 080°06'0 0.0
2017-Nov-04 20:59N 26°07' W 080°06'0 0.0
2017-Nov-04 20:14N 26°07' W 080°06'0 0.0
2017-Nov-04 19:59N 26°07' W 080°06'0 0.0
2017-Nov-04 19:14N 26°07' W 080°06'0 0.0
2017-Nov-04 18:59N 26°07' W 080°06'0 0.0
2017-Nov-04 18:17N 26°07' W 080°06'0 0.0
2017-Nov-04 17:47N 26°07' W 080°06'0 0.0
2017-Nov-04 17:29N 26°07' W 080°06'0 0.0
2017-Nov-04 16:59N 26°07' W 080°06'0 0.0
2017-Nov-04 16:29N 26°07' W 080°06'0 0.0
2017-Nov-04 15:59N 26°07' W 080°06'0 0.0
2017-Nov-04 15:20N 26°07' W 080°06'0 0.0
2017-Nov-04 14:50N 26°07' W 080°06'0 0.0
2017-Nov-04 14:17N 26°07' W 080°06'0 0.0
2017-Nov-04 13:53N 26°07' W 080°06'0 0.0
2017-Nov-04 13:23N 26°07' W 080°06'0 0.0
2017-Nov-04 12:53N 26°07' W 080°06'0 0.0
2017-Nov-04 12:23N 26°07' W 080°06'0 0.0
2017-Nov-04 11:53N 26°07' W 080°06'0 0.0
2017-Nov-04 11:23N 26°07' W 080°06'0 0.0
2017-Nov-04 10:56N 26°07' W 080°06'0 0.0
2017-Nov-04 09:38N 26°07' W 080°06'0 0.0
2017-Nov-04 09:26N 26°07' W 080°06'0 0.0
2017-Nov-04 08:44N 26°07' W 080°06'0 0.0
2017-Nov-04 08:26N 26°07' W 080°06'0 0.0
2017-Nov-04 07:56N 26°07' W 080°06'0 0.0
2017-Nov-04 07:26N 26°07' W 080°06'0 0.0
2017-Nov-04 06:59N 26°07' W 080°06'0 0.0
2017-Nov-04 06:29N 26°07' W 080°06'  

Dump ship's entire track history